KOJC

Johnson County Executive Airport

Olathe, Kansas, USA
METAR KOJC 212150Z 28013G24KT 10SM FEW009 BKN042 OVC050 19/18 A2975 RMK AO2 RAB2059E28 SLP068 P0002 T01940183
Observed Flight Rules
Jun-21 @ 21:50 UTC (15 minutes ago) Visual Flight Rules
Wind Visibility Clouds
280° at 13 knots
 Gusting to 24 knots
10 miles
  • Few at 900' AGL
  • Broken at 4,200' AGL
  • Overcast at 5,000' AGL
Temperatures Readings Precipitation
Current 19°C / 66°F
Dewpoint 18°C / 64°F
Humidity 94%
Altimeter 29.75" Hg
Pressure 1006.8 hPa
Elevation 326
Current Rain 0.02
METAR KOJC 212150Z 28013G24KT 10SM FEW009 BKN042 OVC050 19/18 A2975 RMK AO2 RAB2059E28 SLP068 P0002 T01940183
Observed Flight Rules
Jun-21 @ 21:50 UTC
(15 minutes ago)
VFR
Wind Visibility
280° at 13 knots
 Gusting to 24 knots
10 miles
Clouds
  • Few at 900' AGL
  • Broken at 4,200' AGL
  • Overcast at 5,000' AGL
Temperature Dewpoint
19°C / 66°F 18°C / 64°F
Humidity Altimeter Pressure
94% 29.75" Hg 1006.8 hPa
Current Rain
0.02